sensor_id;sensor_type;location;lat;lon;timestamp;P1;durP1;ratioP1;P2;durP2;ratioP2
42846;SDS011;75159;49.916;14.536;2024-02-21T00:04:20;5.53;;;1.67;;
42846;SDS011;75159;49.916;14.536;2024-02-21T00:14:42;9.35;;;2.05;;
42846;SDS011;75159;49.916;14.536;2024-02-21T00:25:03;6.35;;;2.28;;
42846;SDS011;75159;49.916;14.536;2024-02-21T00:35:24;7.63;;;2.30;;
42846;SDS011;75159;49.916;14.536;2024-02-21T00:45:45;9.65;;;2.40;;
42846;SDS011;75159;49.916;14.536;2024-02-21T00:56:06;8.82;;;2.67;;
42846;SDS011;75159;49.916;14.536;2024-02-21T01:06:27;3.85;;;1.75;;
42846;SDS011;75159;49.916;14.536;2024-02-21T01:16:48;9.75;;;2.28;;
42846;SDS011;75159;49.916;14.536;2024-02-21T01:27:08;6.82;;;2.28;;
42846;SDS011;75159;49.916;14.536;2024-02-21T01:37:30;4.78;;;1.70;;
42846;SDS011;75159;49.916;14.536;2024-02-21T01:47:51;10.35;;;2.58;;
42846;SDS011;75159;49.916;14.536;2024-02-21T01:58:13;7.68;;;2.05;;
42846;SDS011;75159;49.916;14.536;2024-02-21T02:08:34;6.45;;;1.83;;
42846;SDS011;75159;49.916;14.536;2024-02-21T02:18:56;6.95;;;1.67;;
42846;SDS011;75159;49.916;14.536;2024-02-21T02:29:17;6.75;;;1.70;;
42846;SDS011;75159;49.916;14.536;2024-02-21T02:39:38;3.25;;;1.70;;
42846;SDS011;75159;49.916;14.536;2024-02-21T02:49:59;8.98;;;1.98;;
42846;SDS011;75159;49.916;14.536;2024-02-21T03:00:20;6.93;;;2.08;;
42846;SDS011;75159;49.916;14.536;2024-02-21T03:10:41;3.28;;;2.00;;
42846;SDS011;75159;49.916;14.536;2024-02-21T03:21:02;5.32;;;2.05;;
42846;SDS011;75159;49.916;14.536;2024-02-21T03:31:23;3.40;;;1.60;;
42846;SDS011;75159;49.916;14.536;2024-02-21T03:54:34;7.20;;;2.27;;
42846;SDS011;75159;49.916;14.536;2024-02-21T04:04:55;7.13;;;2.45;;
42846;SDS011;75159;49.916;14.536;2024-02-21T04:15:16;11.55;;;2.17;;
42846;SDS011;75159;49.916;14.536;2024-02-21T04:25:37;6.32;;;2.92;;
42846;SDS011;75159;49.916;14.536;2024-02-21T04:35:58;5.75;;;2.15;;
42846;SDS011;75159;49.916;14.536;2024-02-21T04:46:20;8.70;;;2.00;;
42846;SDS011;75159;49.916;14.536;2024-02-21T04:56:41;8.00;;;2.20;;
42846;SDS011;75159;49.916;14.536;2024-02-21T05:07:02;7.15;;;2.17;;
42846;SDS011;75159;49.916;14.536;2024-02-21T05:17:23;5.30;;;1.58;;
42846;SDS011;75159;49.916;14.536;2024-02-21T05:27:44;4.45;;;1.85;;
42846;SDS011;75159;49.916;14.536;2024-02-21T05:38:06;7.30;;;1.83;;
42846;SDS011;75159;49.916;14.536;2024-02-21T05:48:27;5.93;;;2.58;;
42846;SDS011;75159;49.916;14.536;2024-02-21T05:58:48;5.40;;;2.00;;
42846;SDS011;75159;49.916;14.536;2024-02-21T06:09:09;5.90;;;2.05;;
42846;SDS011;75159;49.916;14.536;2024-02-21T06:19:29;9.70;;;2.10;;
42846;SDS011;75159;49.916;14.536;2024-02-21T06:29:50;9.20;;;2.20;;
42846;SDS011;75159;49.916;14.536;2024-02-21T06:40:11;6.78;;;1.83;;
42846;SDS011;75159;49.916;14.536;2024-02-21T06:50:32;9.35;;;2.20;;
42846;SDS011;75159;49.916;14.536;2024-02-21T07:00:53;6.95;;;1.85;;
42846;SDS011;75159;49.916;14.536;2024-02-21T07:11:14;4.53;;;2.15;;
42846;SDS011;75159;49.916;14.536;2024-02-21T07:21:35;6.70;;;2.10;;
42846;SDS011;75159;49.916;14.536;2024-02-21T07:31:58;8.93;;;2.50;;
42846;SDS011;75159;49.916;14.536;2024-02-21T07:42:19;9.85;;;2.70;;
42846;SDS011;75159;49.916;14.536;2024-02-21T07:52:40;7.30;;;2.40;;
42846;SDS011;75159;49.916;14.536;2024-02-21T08:03:03;10.10;;;2.65;;
42846;SDS011;75159;49.916;14.536;2024-02-21T08:13:24;8.23;;;2.38;;
42846;SDS011;75159;49.916;14.536;2024-02-21T08:23:46;5.45;;;2.50;;
42846;SDS011;75159;49.916;14.536;2024-02-21T08:34:11;7.65;;;2.25;;
42846;SDS011;75159;49.916;14.536;2024-02-21T08:44:34;9.50;;;2.88;;
42846;SDS011;75159;49.916;14.536;2024-02-21T08:54:55;7.55;;;2.67;;
42846;SDS011;75159;49.916;14.536;2024-02-21T09:05:16;8.68;;;2.33;;
42846;SDS011;75159;49.916;14.536;2024-02-21T09:15:38;11.02;;;2.67;;
42846;SDS011;75159;49.916;14.536;2024-02-21T09:25:58;8.80;;;2.55;;
42846;SDS011;75159;49.916;14.536;2024-02-21T09:36:24;6.03;;;2.15;;
42846;SDS011;75159;49.916;14.536;2024-02-21T09:46:49;7.07;;;3.08;;
42846;SDS011;75159;49.916;14.536;2024-02-21T09:57:16;5.60;;;2.75;;
42846;SDS011;75159;49.916;14.536;2024-02-21T10:07:38;7.82;;;2.53;;
42846;SDS011;75159;49.916;14.536;2024-02-21T10:18:00;5.20;;;2.10;;
42846;SDS011;75159;49.916;14.536;2024-02-21T10:28:24;2.60;;;1.63;;
42846;SDS011;75159;49.916;14.536;2024-02-21T10:38:45;4.65;;;2.20;;
42846;SDS011;75159;49.916;14.536;2024-02-21T10:49:27;4.60;;;2.03;;
42846;SDS011;75159;49.916;14.536;2024-02-21T10:59:49;4.47;;;2.13;;
42846;SDS011;75159;49.916;14.536;2024-02-21T11:10:23;6.82;;;2.15;;
42846;SDS011;75159;49.916;14.536;2024-02-21T11:20:49;5.32;;;2.03;;
42846;SDS011;75159;49.916;14.536;2024-02-21T11:31:12;3.15;;;1.35;;
42846;SDS011;75159;49.916;14.536;2024-02-21T11:41:34;2.92;;;1.60;;
42846;SDS011;75159;49.916;14.536;2024-02-21T11:52:01;4.10;;;1.20;;
42846;SDS011;75159;49.916;14.536;2024-02-21T12:02:26;5.35;;;1.23;;
42846;SDS011;75159;49.916;14.536;2024-02-21T12:12:48;4.15;;;1.67;;
42846;SDS011;75159;49.916;14.536;2024-02-21T12:23:10;3.42;;;1.15;;
42846;SDS011;75159;49.916;14.536;2024-02-21T12:33:32;5.45;;;1.75;;
42846;SDS011;75159;49.916;14.536;2024-02-21T12:43:53;4.78;;;1.45;;
42846;SDS011;75159;49.916;14.536;2024-02-21T12:54:14;2.53;;;1.42;;
42846;SDS011;75159;49.916;14.536;2024-02-21T13:17:12;4.88;;;1.52;;
42846;SDS011;75159;49.916;14.536;2024-02-21T13:27:35;3.10;;;1.20;;
42846;SDS011;75159;49.916;14.536;2024-02-21T13:37:57;1.60;;;1.23;;
42846;SDS011;75159;49.916;14.536;2024-02-21T13:48:17;6.00;;;1.40;;
42846;SDS011;75159;49.916;14.536;2024-02-21T13:58:38;3.58;;;1.02;;
42846;SDS011;75159;49.916;14.536;2024-02-21T14:08:59;3.97;;;2.00;;
42846;SDS011;75159;49.916;14.536;2024-02-21T14:19:20;2.97;;;1.27;;
42846;SDS011;75159;49.916;14.536;2024-02-21T14:29:41;6.82;;;3.10;;
42846;SDS011;75159;49.916;14.536;2024-02-21T14:40:02;1.88;;;0.90;;
42846;SDS011;75159;49.916;14.536;2024-02-21T14:50:24;4.03;;;1.23;;
42846;SDS011;75159;49.916;14.536;2024-02-21T15:00:45;1.17;;;0.80;;
42846;SDS011;75159;49.916;14.536;2024-02-21T15:11:09;2.88;;;1.30;;
42846;SDS011;75159;49.916;14.536;2024-02-21T15:21:30;2.83;;;1.10;;
42846;SDS011;75159;49.916;14.536;2024-02-21T15:31:51;2.45;;;0.73;;
42846;SDS011;75159;49.916;14.536;2024-02-21T15:42:13;3.97;;;1.35;;
42846;SDS011;75159;49.916;14.536;2024-02-21T15:52:34;2.60;;;1.15;;
42846;SDS011;75159;49.916;14.536;2024-02-21T16:02:55;5.97;;;1.90;;
42846;SDS011;75159;49.916;14.536;2024-02-21T16:13:17;6.60;;;2.38;;
42846;SDS011;75159;49.916;14.536;2024-02-21T16:23:39;2.80;;;1.05;;
42846;SDS011;75159;49.916;14.536;2024-02-21T16:34:00;29.75;;;16.17;;
42846;SDS011;75159;49.916;14.536;2024-02-21T16:44:20;25.75;;;14.88;;
42846;SDS011;75159;49.916;14.536;2024-02-21T16:54:42;8.45;;;4.15;;
42846;SDS011;75159;49.916;14.536;2024-02-21T17:05:03;3.88;;;2.08;;
42846;SDS011;75159;49.916;14.536;2024-02-21T17:15:24;33.15;;;15.40;;
42846;SDS011;75159;49.916;14.536;2024-02-21T17:25:52;4.70;;;1.80;;
42846;SDS011;75159;49.916;14.536;2024-02-21T17:36:15;3.63;;;1.80;;
42846;SDS011;75159;49.916;14.536;2024-02-21T17:46:40;7.53;;;4.68;;
42846;SDS011;75159;49.916;14.536;2024-02-21T17:57:05;10.95;;;5.85;;
42846;SDS011;75159;49.916;14.536;2024-02-21T18:07:26;11.23;;;6.28;;
42846;SDS011;75159;49.916;14.536;2024-02-21T18:17:47;28.85;;;14.88;;
42846;SDS011;75159;49.916;14.536;2024-02-21T18:28:08;6.60;;;3.50;;
42846;SDS011;75159;49.916;14.536;2024-02-21T18:38:30;3.17;;;1.65;;
42846;SDS011;75159;49.916;14.536;2024-02-21T18:48:51;4.68;;;2.40;;
42846;SDS011;75159;49.916;14.536;2024-02-21T18:59:13;7.18;;;3.80;;
42846;SDS011;75159;49.916;14.536;2024-02-21T19:09:34;8.13;;;4.68;;
42846;SDS011;75159;49.916;14.536;2024-02-21T19:19:55;8.80;;;4.93;;
42846;SDS011;75159;49.916;14.536;2024-02-21T19:30:16;11.73;;;5.47;;
42846;SDS011;75159;49.916;14.536;2024-02-21T19:40:37;22.60;;;13.73;;
42846;SDS011;75159;49.916;14.536;2024-02-21T19:50:58;18.25;;;11.30;;
42846;SDS011;75159;49.916;14.536;2024-02-21T20:01:19;17.58;;;9.68;;
42846;SDS011;75159;49.916;14.536;2024-02-21T20:11:41;76.50;;;33.75;;
42846;SDS011;75159;49.916;14.536;2024-02-21T20:22:02;80.70;;;38.55;;
42846;SDS011;75159;49.916;14.536;2024-02-21T20:32:24;29.13;;;14.43;;
42846;SDS011;75159;49.916;14.536;2024-02-21T20:42:45;55.08;;;26.17;;
42846;SDS011;75159;49.916;14.536;2024-02-21T20:53:06;43.78;;;21.02;;
42846;SDS011;75159;49.916;14.536;2024-02-21T21:03:27;29.35;;;13.30;;
42846;SDS011;75159;49.916;14.536;2024-02-21T21:13:52;22.77;;;9.70;;
42846;SDS011;75159;49.916;14.536;2024-02-21T21:24:13;10.88;;;4.22;;
42846;SDS011;75159;49.916;14.536;2024-02-21T21:34:34;9.95;;;3.95;;
42846;SDS011;75159;49.916;14.536;2024-02-21T21:44:55;7.60;;;3.65;;
42846;SDS011;75159;49.916;14.536;2024-02-21T21:55:16;7.35;;;3.17;;
42846;SDS011;75159;49.916;14.536;2024-02-21T22:05:37;4.97;;;2.80;;
42846;SDS011;75159;49.916;14.536;2024-02-21T22:15:58;6.70;;;3.45;;
42846;SDS011;75159;49.916;14.536;2024-02-21T22:26:20;6.05;;;3.50;;
42846;SDS011;75159;49.916;14.536;2024-02-21T22:36:41;6.63;;;2.55;;
42846;SDS011;75159;49.916;14.536;2024-02-21T22:47:02;5.65;;;2.70;;
42846;SDS011;75159;49.916;14.536;2024-02-21T22:57:24;5.68;;;3.10;;
42846;SDS011;75159;49.916;14.536;2024-02-21T23:07:44;4.95;;;2.55;;
42846;SDS011;75159;49.916;14.536;2024-02-21T23:18:10;5.75;;;2.83;;
42846;SDS011;75159;49.916;14.536;2024-02-21T23:28:31;3.80;;;2.17;;
42846;SDS011;75159;49.916;14.536;2024-02-21T23:38:52;8.68;;;3.50;;
42846;SDS011;75159;49.916;14.536;2024-02-21T23:49:12;13.93;;;5.60;;
42846;SDS011;75159;49.916;14.536;2024-02-21T23:59:34;6.85;;;3.45;;
